• Join FlightAware (Why Join?)
  • Login
  • US Flag 
10:01AM EST


 

Airport Tracker/Info


-or-


 

Live Flight TrackerFlight Track Log ✈ SWA1535 ✈ 26-Apr-2013 ✈ KMDW - KPVD

Flight Track Log - Related Links

Times and Time Zones

All times are in EDT time to prevent confusion due to time zone crossing. See the SWA1535 flight status page for this flight to view local times or setup timezone preferences in your user account.

Time Position Orientation Groundspeed Altitude Reporting Facility
EDT Latitude Longitude Course Direction KTS MPH feet Rate Location/Type
10:28AM 41.8333 -87.7833 360° North 250 288 3,300  Level Chicago TRACON
10:29AM 41.8167 -87.7000 105° East 243 280 5,000 829 Climbing Chicago TRACON
10:31AM 41.8167 -87.5000 90° East 280 322 5,800 1,425 Climbing Chicago TRACON
10:32AM 41.8167 -87.3833 90° East 297 342 9,300 3,618 Climbing Chicago TRACON
10:33AM 41.7903 -87.2436 104° East 309 356 14,000 2,478 Climbing Chicago Center
10:34AM 41.7708 -87.1242 102° East 326 375 15,000 532 Climbing Chicago Center
10:35AM 41.7603 -87.0019 97° East 330 380 15,100 97 Climbing Chicago Center
10:36AM 41.7633 -86.8797 88° East 329 379 15,200 1,113 Climbing Chicago Center
10:37AM 41.7644 -86.7464 89° East 360 414 17,400 2,323 Climbing Chicago Center
10:38AM 41.7667 -86.5878 89° East 384 442 20,000 2,371 Climbing Chicago Center
10:39AM 41.7803 -86.4339 83° East 416 479 22,300 2,177 Climbing Chicago Center
10:40AM 41.7947 -86.2714 83° East 436 502 24,500 2,032 Climbing Chicago Center
10:41AM 41.8089 -86.0997 84° East 457 526 26,500 2,032 Climbing Chicago Center
10:42AM 41.8272 -85.8839 83° East 483 556 28,700 1,790 Climbing Chicago Center
10:43AM 41.8431 -85.6956 83° East 502 578 30,200 1,392 Climbing Chicago Center
10:44AM 41.8603 -85.4983 83° East 521 600 31,600 1,344 Climbing Chicago Center
10:45AM 41.8753 -85.2972 84° East 532 612 33,000 774 Climbing Chicago Center
10:46AM 41.8911 -85.0947 84° East 538 619 33,200 1,210 Climbing Chicago Center
10:48AM 41.9058 -84.8983 84° East 533 613 35,500 1,985 Climbing Chicago Center
10:49AM 41.9250 -84.6611 84° East 523 602 37,500 1,500 Climbing Cleveland Center
10:50AM 41.9397 -84.4778 84° East 511 588 38,700 750 Climbing Cleveland Center
10:51AM 41.9503 -84.2856 86° East 504 580 39,000 150 Climbing Cleveland Center
10:52AM 41.9578 -84.1156 87° East 504 580 39,000  Level Cleveland Center
10:53AM 41.9717 -83.9264 84° East 504 580 39,000  Level Cleveland Center
10:54AM 41.9839 -83.7147 85° East 509 586 39,000  Level Cleveland Center
10:55AM 41.9953 -83.5253 85° East 509 586 39,000  Level Cleveland Center
10:56AM 42.0083 -83.3331 85° East 514 592 39,000  Level Cleveland Center
10:57AM 42.0189 -83.1433 86° East 514 592 39,000  Level Cleveland Center
10:58AM 42.0314 -82.9508 85° East 514 592 39,000  Level Cleveland Center
10:59AM 42.0433 -82.7669 85° East 514 592 39,000  Level Cleveland Center
11:00AM 42.0508 -82.5797 87° East 509 586 39,000  Level Cleveland Center
11:01AM 42.0644 -82.3956 84° East 494 568 39,000  Level Cleveland Center
11:02AM 42.0714 -82.2083 87° East 494 568 39,000  Level Cleveland Center
11:03AM 42.0819 -82.0408 85° East 494 568 39,000  Level Cleveland Center
11:04AM 42.0906 -81.8564 86° East 495 570 39,000  Level Cleveland Center
11:05AM 42.0986 -81.6689 87° East 500 575 39,000  Level Cleveland Center
11:06AM 42.1064 -81.4844 87° East 495 570 39,000  Level Cleveland Center
11:07AM 42.1161 -81.2969 86° East 501 577 39,000  Level Cleveland Center
11:08AM 42.1236 -81.0928 87° East 496 571 39,000  Level Cleveland Center
11:09AM 42.1306 -80.9050 87° East 496 571 39,000  Level Cleveland Center
11:10AM 42.1392 -80.7175 86° East 496 571 39,000  Level Cleveland Center
11:11AM 42.1558 -80.5300 83° East 496 571 39,000  Level Cleveland Center
11:12AM 42.1764 -80.3506 81° East 496 571 39,000  Level Cleveland Center
11:13AM 42.1928 -80.1628 83° East 496 571 39,000  Level Cleveland Center
11:14AM 42.2106 -79.9833 82° East 496 571 39,000  Level Cleveland Center
11:15AM 42.2303 -79.7981 82° East 496 571 39,000  Level Cleveland Center
11:16AM 42.2478 -79.6183 82° East 496 571 39,000  Level Cleveland Center
11:17AM 42.2647 -79.4356 83° East 491 565 39,000  Level Cleveland Center
11:18AM 42.2817 -79.2531 83° East 491 565 39,000  Level Cleveland Center
11:19AM 42.2981 -79.0672 83° East 486 559 39,000  Level Cleveland Center
11:20AM 42.3128 -78.9208 82° East 486 559 39,000  Level Cleveland Center
11:21AM 42.3306 -78.7211 83° East 486 559 39,000  Level Cleveland Center
11:22AM 42.3483 -78.5350 83° East 486 559 39,000  Level Cleveland Center
11:23AM 42.3636 -78.3464 84° East 491 565 39,000  Level Cleveland Center
11:24AM 42.3786 -78.1631 84° East 491 565 39,000  Level Cleveland Center
11:25AM 42.3933 -77.9825 84° East 491 565 39,000  Level Cleveland Center
11:26AM 42.4094 -77.7794 84° East 491 565 39,000  Level Cleveland Center
11:27AM 42.4236 -77.5958 84° East 485 558 39,000  Level Cleveland Center
11:29AM 42.4500 -77.2667 84° East 491 565 39,000  Level Boston Center
11:30AM 42.4617 -77.0875 85° East 491 565 39,000  Level Boston Center
11:31AM 42.4753 -76.9025 84° East 491 565 39,000  Level Boston Center
11:32AM 42.4889 -76.7147 84° East 496 571 39,000  Level Boston Center
11:33AM 42.5019 -76.5297 84° East 496 571 39,000  Level Boston Center
11:34AM 42.5097 -76.3075 87° East 496 571 39,000  Level Boston Center
11:35AM 42.4617 -76.1808 117° Southeast 484 557 39,000  Level Boston Center
11:36AM 42.3742 -75.9900 122° Southeast 468 539 39,000  Level Boston Center
11:37AM 42.2825 -75.7825 121° Southeast 492 566 39,000  Level Boston Center
11:38AM 42.2236 -75.6561 122° Southeast 497 572 39,000  Level Boston Center
11:39AM 42.1350 -75.4667 122° Southeast 497 572 39,000  Level Boston Center
11:40AM 42.0744 -75.3014 116° Southeast 502 578 39,000 -200 Level Boston Center
11:41AM 42.0853 -75.1231 85° East 464 534 38,600 -1,500 Descending Boston Center
11:42AM 42.1017 -74.9472 83° East 464 534 36,000 -2,550 Descending Boston Center
11:43AM 42.1203 -74.7633 82° East 469 540 33,500 -2,250 Descending Boston Center
11:44AM 42.1361 -74.5903 83° East 469 540 31,500 -1,800 Descending Boston Center
11:45AM 42.1469 -74.4592 84° East 469 540 29,900 -1,300 Descending Boston Center
11:46AM 42.1689 -74.2636 81° East 451 519 28,900 -1,000 Descending Boston Center
11:47AM 42.1839 -74.1044 83° East 436 502 27,900 -950 Descending Boston Center
11:48AM 42.1986 -73.9478 83° East 426 490 27,000 -800 Descending Boston Center
11:49AM 42.2131 -73.7911 83° East 426 490 26,300 -900 Descending Boston Center
11:50AM 42.2294 -73.6317 82° East 426 490 25,200 -1,050 Descending Boston Center
11:51AM 42.2433 -73.4833 83° East 415 478 24,200 -900 Descending Boston Center
11:52AM 42.2528 -73.3628 84° East 404 465 23,400 -950 Descending Boston Center
11:53AM 42.2622 -73.2089 85° East 386 444 22,300 -1,050 Descending Boston Center
11:54AM 42.2214 -73.0792 113° Southeast 377 434 21,300 -650 Descending Boston Center
11:55AM 42.1492 -72.9694 132° Southeast 367 422 21,000 -150 Descending Boston Center
11:56AM 42.0828 -72.8569 128° Southeast 372 428 21,000 -550 Level Boston Center
11:57AM 42.0083 -72.7278 128° Southeast 391 450 19,900 -1,000 Descending Boston Center
11:58AM 41.9481 -72.6383 132° Southeast 384 442 19,000 -950 Descending Boston Center
11:59AM 41.9044 -72.4986 113° Southeast 368 423 18,000 -1,034 Descending Boston Center
12:00PM 41.8711 -72.3758 110° East 366 421 17,000 -1,000 Descending Boston Center
12:00PM 41.8689 -72.3731 137° Southeast 360 414 16,800 -1,737 Descending Boston Center
12:01PM 41.7875 -72.2647 135° Southeast 352 405 14,800 -1,870 Descending Boston Center
12:01PM 41.7689 -72.2481 146° Southeast 350 403 14,400 -1,500 Descending Boston Center
12:02PM 41.7250 -72.1897 135° Southeast 340 391 13,300 -1,689 Descending Boston Center
12:03PM 41.6456 -72.1039 141° Southeast 335 386 11,500 -1,045 Descending Boston Center
12:04PM 41.5639 -72.0100 139° Southeast 315 362 11,000 -550 Descending Boston Center
12:05PM 41.5344 -71.9297 116° Southeast 312 359 10,400 -1,252 Descending Boston Center
12:06PM 41.5047 -71.8136 109° East 303 349 8,600 -1,547 Descending Boston Center
12:07PM 41.5542 -71.7300 52° Northeast 292 336 7,100 -1,377 Descending Boston Center
12:08PM 41.6142 -71.6625 40° Northeast 286 329 5,800 -1,033 Descending Boston Center
12:09PM 41.6742 -71.6036 36° Northeast 271 312 5,000 -492 Descending Boston Center
12:10PM 41.7364 -71.5525 32° Northeast 247 284 4,800 -699 Descending Boston Center
12:12PM 41.8086 -71.4875 34° Northeast 223 257 3,300 -1,041 Descending Boston Center
12:12PM 41.8272 -71.4511 56° Northeast 209 241 2,700 -928 Descending Boston Center
12:13PM 41.8078 -71.3958 115° Southeast 165 190 1,800 -816 Descending Boston Center
12:15PM 41.7167 -71.4167 197° South  Level FlightAware Approximate
12:15PM 41.7536 -71.4022 197° South 136 157 700  Level Boston Center
12:17PM 41.7167 -71.4167 197° South  Level FlightAware Approximate
12:24PM 41.7240 -71.4282 197° South  Level Estimated
12:25PM 41.7240 -71.4282 197° South  Level Estimated
12:26PM 41.7240 -71.4282 197° South  Level Estimated
12:27PM 41.7240 -71.4282 197° South  Level Estimated